sensor_id;sensor_type;location;lat;lon;timestamp;pressure;altitude;pressure_sealevel;temperature;humidity
32081;BME280;18593;51.426;7.030;2023-05-25T00:01:42;101443.34;;;12.39;60.56
32081;BME280;18593;51.426;7.030;2023-05-25T00:04:13;101442.72;;;12.37;60.89
32081;BME280;18593;51.426;7.030;2023-05-25T00:06:43;101448.06;;;12.37;60.97
32081;BME280;18593;51.426;7.030;2023-05-25T00:09:12;101443.94;;;12.34;61.03
32081;BME280;18593;51.426;7.030;2023-05-25T00:11:39;101439.59;;;12.33;61.00
32081;BME280;18593;51.426;7.030;2023-05-25T00:14:06;101444.34;;;12.31;61.22
32081;BME280;18593;51.426;7.030;2023-05-25T00:16:34;101438.19;;;12.31;60.97
32081;BME280;18593;51.426;7.030;2023-05-25T00:19:03;101446.59;;;12.28;60.98
32081;BME280;18593;51.426;7.030;2023-05-25T00:21:31;101440.78;;;12.24;60.64
32081;BME280;18593;51.426;7.030;2023-05-25T00:24:04;101439.34;;;12.22;60.70
32081;BME280;18593;51.426;7.030;2023-05-25T00:26:32;101436.91;;;12.20;60.79
32081;BME280;18593;51.426;7.030;2023-05-25T00:29:00;101441.59;;;12.18;60.58
32081;BME280;18593;51.426;7.030;2023-05-25T00:31:27;101440.97;;;12.16;60.72
32081;BME280;18593;51.426;7.030;2023-05-25T00:33:54;101444.03;;;12.13;60.34
32081;BME280;18593;51.426;7.030;2023-05-25T00:36:22;101438.25;;;12.09;60.44
32081;BME280;18593;51.426;7.030;2023-05-25T00:38:50;101433.09;;;12.08;60.57
32081;BME280;18593;51.426;7.030;2023-05-25T00:41:19;101429.00;;;12.05;60.45
32081;BME280;18593;51.426;7.030;2023-05-25T00:43:47;101435.94;;;12.00;60.34
32081;BME280;18593;51.426;7.030;2023-05-25T00:46:14;101445.63;;;12.01;60.32
32081;BME280;18593;51.426;7.030;2023-05-25T00:48:42;101443.13;;;11.99;60.46
32081;BME280;18593;51.426;7.030;2023-05-25T00:51:10;101443.53;;;11.96;60.42
32081;BME280;18593;51.426;7.030;2023-05-25T00:53:38;101441.03;;;11.95;60.32
32081;BME280;18593;51.426;7.030;2023-05-25T00:56:13;101444.94;;;11.92;60.51
32081;BME280;18593;51.426;7.030;2023-05-25T00:58:44;101442.66;;;11.89;60.28
32081;BME280;18593;51.426;7.030;2023-05-25T01:01:14;101445.75;;;11.86;60.27
32081;BME280;18593;51.426;7.030;2023-05-25T01:03:43;101444.28;;;11.83;60.34
32081;BME280;18593;51.426;7.030;2023-05-25T01:06:14;101439.28;;;11.80;60.28
32081;BME280;18593;51.426;7.030;2023-05-25T01:08:48;101447.69;;;11.77;60.13
32081;BME280;18593;51.426;7.030;2023-05-25T01:11:20;101441.69;;;11.75;59.83
32081;BME280;18593;51.426;7.030;2023-05-25T01:13:51;101437.78;;;11.71;60.13
32081;BME280;18593;51.426;7.030;2023-05-25T01:16:19;101445.16;;;11.69;60.19
32081;BME280;18593;51.426;7.030;2023-05-25T01:18:46;101446.19;;;11.68;60.21
32081;BME280;18593;51.426;7.030;2023-05-25T01:21:24;101437.53;;;11.66;60.28
32081;BME280;18593;51.426;7.030;2023-05-25T01:24:01;101451.09;;;11.65;60.11
32081;BME280;18593;51.426;7.030;2023-05-25T01:26:37;101447.78;;;11.63;60.36
32081;BME280;18593;51.426;7.030;2023-05-25T01:29:05;101447.97;;;11.61;60.45
32081;BME280;18593;51.426;7.030;2023-05-25T01:31:34;101453.31;;;11.61;60.40
32081;BME280;18593;51.426;7.030;2023-05-25T01:34:04;101452.69;;;11.59;60.60
32081;BME280;18593;51.426;7.030;2023-05-25T01:36:33;101452.91;;;11.57;60.65
32081;BME280;18593;51.426;7.030;2023-05-25T01:39:05;101452.25;;;11.55;60.48
32081;BME280;18593;51.426;7.030;2023-05-25T01:41:32;101448.13;;;11.53;60.67
32081;BME280;18593;51.426;7.030;2023-05-25T01:43:59;101458.81;;;11.53;60.79
32081;BME280;18593;51.426;7.030;2023-05-25T01:46:31;101458.16;;;11.51;60.49
32081;BME280;18593;51.426;7.030;2023-05-25T01:49:18;101452.19;;;11.49;60.98
32081;BME280;18593;51.426;7.030;2023-05-25T01:51:57;101459.19;;;11.50;61.11
32081;BME280;18593;51.426;7.030;2023-05-25T01:54:34;101459.41;;;11.48;61.23
32081;BME280;18593;51.426;7.030;2023-05-25T01:57:05;101456.72;;;11.48;61.03
32081;BME280;18593;51.426;7.030;2023-05-25T01:59:35;101457.75;;;11.47;61.21
32081;BME280;18593;51.426;7.030;2023-05-25T02:02:03;101449.28;;;11.44;61.06
32081;BME280;18593;51.426;7.030;2023-05-25T02:04:32;101455.44;;;11.44;61.05
32081;BME280;18593;51.426;7.030;2023-05-25T02:07:02;101447.63;;;11.43;60.82
32081;BME280;18593;51.426;7.030;2023-05-25T02:09:30;101458.50;;;11.41;60.96
32081;BME280;18593;51.426;7.030;2023-05-25T02:11:57;101453.34;;;11.40;60.85
32081;BME280;18593;51.426;7.030;2023-05-25T02:14:26;101457.06;;;11.39;60.70
32081;BME280;18593;51.426;7.030;2023-05-25T02:16:53;101452.72;;;11.38;60.87
32081;BME280;18593;51.426;7.030;2023-05-25T02:19:22;101457.41;;;11.35;60.99
32081;BME280;18593;51.426;7.030;2023-05-25T02:21:49;101463.78;;;11.34;61.10
32081;BME280;18593;51.426;7.030;2023-05-25T02:24:18;101466.47;;;11.34;61.11
32081;BME280;18593;51.426;7.030;2023-05-25T02:26:45;101466.00;;;11.31;61.10
32081;BME280;18593;51.426;7.030;2023-05-25T02:29:12;101461.50;;;11.31;61.19
32081;BME280;18593;51.426;7.030;2023-05-25T02:34:12;101469.91;;;11.28;61.16
32081;BME280;18593;51.426;7.030;2023-05-25T02:36:40;101457.56;;;11.27;61.14
32081;BME280;18593;51.426;7.030;2023-05-25T02:39:09;101464.72;;;11.27;61.00
32081;BME280;18593;51.426;7.030;2023-05-25T02:41:39;101463.09;;;11.26;61.08
32081;BME280;18593;51.426;7.030;2023-05-25T02:44:06;101465.97;;;11.24;61.26
32081;BME280;18593;51.426;7.030;2023-05-25T02:46:34;101471.28;;;11.24;61.54
32081;BME280;18593;51.426;7.030;2023-05-25T02:49:01;101465.97;;;11.24;61.76
32081;BME280;18593;51.426;7.030;2023-05-25T02:51:28;101466.16;;;11.23;62.02
32081;BME280;18593;51.426;7.030;2023-05-25T02:53:58;101471.50;;;11.23;62.16
32081;BME280;18593;51.426;7.030;2023-05-25T02:56:26;101466.97;;;11.23;62.06
32081;BME280;18593;51.426;7.030;2023-05-25T02:58:55;101471.28;;;11.24;62.19
32081;BME280;18593;51.426;7.030;2023-05-25T03:01:32;101480.94;;;11.25;62.20
32081;BME280;18593;51.426;7.030;2023-05-25T03:04:00;101480.94;;;11.25;62.37
32081;BME280;18593;51.426;7.030;2023-05-25T03:06:31;101480.94;;;11.25;62.30
32081;BME280;18593;51.426;7.030;2023-05-25T03:09:07;101488.75;;;11.27;62.34
32081;BME280;18593;51.426;7.030;2023-05-25T03:11:36;101486.09;;;11.27;62.42
32081;BME280;18593;51.426;7.030;2023-05-25T03:14:05;101484.44;;;11.26;62.26
32081;BME280;18593;51.426;7.030;2023-05-25T03:16:34;101479.94;;;11.26;62.35
32081;BME280;18593;51.426;7.030;2023-05-25T03:19:04;101483.63;;;11.25;62.46
32081;BME280;18593;51.426;7.030;2023-05-25T03:21:32;101478.28;;;11.25;62.38
32081;BME280;18593;51.426;7.030;2023-05-25T03:23:59;101477.47;;;11.25;62.42
32081;BME280;18593;51.426;7.030;2023-05-25T03:26:27;101480.31;;;11.23;62.20
32081;BME280;18593;51.426;7.030;2023-05-25T03:28:55;101478.66;;;11.22;62.20
32081;BME280;18593;51.426;7.030;2023-05-25T03:31:24;101485.84;;;11.22;62.25
32081;BME280;18593;51.426;7.030;2023-05-25T03:33:51;101488.09;;;11.18;61.91
32081;BME280;18593;51.426;7.030;2023-05-25T03:36:20;101493.78;;;11.15;61.92
32081;BME280;18593;51.426;7.030;2023-05-25T03:38:52;101498.31;;;11.15;61.94
32081;BME280;18593;51.426;7.030;2023-05-25T03:41:19;101496.81;;;11.12;61.54
32081;BME280;18593;51.426;7.030;2023-05-25T03:43:46;101498.69;;;11.12;61.91
32081;BME280;18593;51.426;7.030;2023-05-25T03:46:14;101493.53;;;11.10;62.00
32081;BME280;18593;51.426;7.030;2023-05-25T03:48:44;101497.41;;;11.07;61.77
32081;BME280;18593;51.426;7.030;2023-05-25T03:51:11;101502.94;;;11.06;61.79
32081;BME280;18593;51.426;7.030;2023-05-25T03:53:38;101504.78;;;11.05;61.81
32081;BME280;18593;51.426;7.030;2023-05-25T03:56:07;101510.13;;;11.05;61.81
32081;BME280;18593;51.426;7.030;2023-05-25T03:58:36;101514.63;;;11.05;61.81
32081;BME280;18593;51.426;7.030;2023-05-25T04:01:03;101514.63;;;11.05;61.76
32081;BME280;18593;51.426;7.030;2023-05-25T04:03:31;101515.81;;;11.02;61.93
32081;BME280;18593;51.426;7.030;2023-05-25T04:06:00;101523.00;;;11.02;62.05
32081;BME280;18593;51.426;7.030;2023-05-25T04:08:28;101522.38;;;11.00;62.14
32081;BME280;18593;51.426;7.030;2023-05-25T04:10:55;101524.03;;;11.01;62.24
32081;BME280;18593;51.426;7.030;2023-05-25T04:13:22;101538.03;;;11.03;62.42
32081;BME280;18593;51.426;7.030;2023-05-25T04:15:50;101531.84;;;11.02;62.58
32081;BME280;18593;51.426;7.030;2023-05-25T04:18:22;101532.69;;;11.03;62.59
32081;BME280;18593;51.426;7.030;2023-05-25T04:20:49;101532.69;;;11.03;62.94
32081;BME280;18593;51.426;7.030;2023-05-25T04:23:21;101540.50;;;11.04;62.94
32081;BME280;18593;51.426;7.030;2023-05-25T04:25:50;101536.00;;;11.05;63.04
32081;BME280;18593;51.426;7.030;2023-05-25T04:28:18;101535.63;;;11.08;63.15
32081;BME280;18593;51.426;7.030;2023-05-25T04:30:54;101532.09;;;11.07;63.35
32081;BME280;18593;51.426;7.030;2023-05-25T04:33:31;101524.75;;;11.09;63.49
32081;BME280;18593;51.426;7.030;2023-05-25T04:36:09;101528.03;;;11.12;63.39
32081;BME280;18593;51.426;7.030;2023-05-25T04:38:40;101534.47;;;11.17;63.48
32081;BME280;18593;51.426;7.030;2023-05-25T04:41:08;101535.38;;;11.24;63.63
32081;BME280;18593;51.426;7.030;2023-05-25T04:43:36;101530.94;;;11.31;63.60
32081;BME280;18593;51.426;7.030;2023-05-25T04:46:04;101529.78;;;11.41;63.91
32081;BME280;18593;51.426;7.030;2023-05-25T04:48:33;101531.13;;;11.51;63.83
32081;BME280;18593;51.426;7.030;2023-05-25T04:51:03;101538.66;;;11.63;63.59
32081;BME280;18593;51.426;7.030;2023-05-25T04:53:32;101542.44;;;11.75;63.77
32081;BME280;18593;51.426;7.030;2023-05-25T04:56:03;101545.25;;;11.88;64.25
32081;BME280;18593;51.426;7.030;2023-05-25T04:58:30;101543.53;;;12.02;64.14
32081;BME280;18593;51.426;7.030;2023-05-25T05:00:58;101552.66;;;12.14;64.08
32081;BME280;18593;51.426;7.030;2023-05-25T05:03:25;101556.47;;;12.26;63.70
32081;BME280;18593;51.426;7.030;2023-05-25T05:05:52;101559.59;;;12.36;63.70
32081;BME280;18593;51.426;7.030;2023-05-25T05:08:26;101558.03;;;12.49;63.06
32081;BME280;18593;51.426;7.030;2023-05-25T05:10:54;101563.84;;;12.59;62.90
32081;BME280;18593;51.426;7.030;2023-05-25T05:13:24;101566.16;;;12.69;62.98
32081;BME280;18593;51.426;7.030;2023-05-25T05:15:52;101565.63;;;12.80;63.20
32081;BME280;18593;51.426;7.030;2023-05-25T05:18:19;101567.72;;;12.91;62.98
32081;BME280;18593;51.426;7.030;2023-05-25T05:20:47;101572.69;;;13.01;62.97
32081;BME280;18593;51.426;7.030;2023-05-25T05:23:15;101561.81;;;13.09;62.42
32081;BME280;18593;51.426;7.030;2023-05-25T05:25:43;101577.50;;;13.19;62.65
32081;BME280;18593;51.426;7.030;2023-05-25T05:28:11;101575.50;;;13.27;62.18
32081;BME280;18593;51.426;7.030;2023-05-25T05:30:41;101579.41;;;13.31;62.35
32081;BME280;18593;51.426;7.030;2023-05-25T05:33:11;101585.41;;;13.33;62.34
32081;BME280;18593;51.426;7.030;2023-05-25T05:35:44;101593.25;;;13.35;62.14
32081;BME280;18593;51.426;7.030;2023-05-25T05:38:16;101585.41;;;13.33;61.13
32081;BME280;18593;51.426;7.030;2023-05-25T05:40:43;101594.06;;;13.35;61.39
32081;BME280;18593;51.426;7.030;2023-05-25T05:43:12;101598.00;;;13.39;61.79
32081;BME280;18593;51.426;7.030;2023-05-25T05:45:41;101591.00;;;13.45;61.73
32081;BME280;18593;51.426;7.030;2023-05-25T05:48:08;101599.47;;;13.55;61.27
32081;BME280;18593;51.426;7.030;2023-05-25T05:50:36;101608.59;;;13.68;61.26
32081;BME280;18593;51.426;7.030;2023-05-25T05:53:03;101604.25;;;13.80;61.64
32081;BME280;18593;51.426;7.030;2023-05-25T05:55:31;101610.47;;;13.94;61.60
32081;BME280;18593;51.426;7.030;2023-05-25T05:57:58;101610.88;;;14.04;60.36
32081;BME280;18593;51.426;7.030;2023-05-25T06:00:25;101615.03;;;14.13;60.53
32081;BME280;18593;51.426;7.030;2023-05-25T06:02:54;101610.06;;;14.23;60.26
32081;BME280;18593;51.426;7.030;2023-05-25T06:05:24;101610.91;;;14.30;59.32
32081;BME280;18593;51.426;7.030;2023-05-25T06:07:54;101610.66;;;14.38;58.75
32081;BME280;18593;51.426;7.030;2023-05-25T06:10:21;101609.03;;;14.51;58.77
32081;BME280;18593;51.426;7.030;2023-05-25T06:12:49;101606.75;;;14.61;58.48
32081;BME280;18593;51.426;7.030;2023-05-25T06:15:16;101606.09;;;14.72;58.03
32081;BME280;18593;51.426;7.030;2023-05-25T06:17:46;101605.88;;;14.80;58.04
32081;BME280;18593;51.426;7.030;2023-05-25T06:20:15;101602.53;;;14.91;57.89
32081;BME280;18593;51.426;7.030;2023-05-25T06:22:42;101607.69;;;15.00;57.16
32081;BME280;18593;51.426;7.030;2023-05-25T06:25:10;101606.19;;;15.10;56.83
32081;BME280;18593;51.426;7.030;2023-05-25T06:27:37;101601.22;;;15.14;56.52
32081;BME280;18593;51.426;7.030;2023-05-25T06:30:06;101618.75;;;15.23;57.12
32081;BME280;18593;51.426;7.030;2023-05-25T06:32:35;101616.00;;;15.30;55.77
32081;BME280;18593;51.426;7.030;2023-05-25T06:35:02;101614.50;;;15.40;56.08
32081;BME280;18593;51.426;7.030;2023-05-25T06:37:32;101617.38;;;15.45;56.15
32081;BME280;18593;51.426;7.030;2023-05-25T06:40:03;101609.06;;;15.54;55.01
32081;BME280;18593;51.426;7.030;2023-05-25T06:42:34;101614.44;;;15.54;54.34
32081;BME280;18593;51.426;7.030;2023-05-25T06:45:03;101634.31;;;15.53;55.60
32081;BME280;18593;51.426;7.030;2023-05-25T06:47:31;101630.34;;;15.62;55.09
32081;BME280;18593;51.426;7.030;2023-05-25T06:49:58;101635.69;;;15.68;54.39
32081;BME280;18593;51.426;7.030;2023-05-25T06:52:25;101627.63;;;15.68;53.94
32081;BME280;18593;51.426;7.030;2023-05-25T06:54:55;101641.47;;;15.72;54.44
32081;BME280;18593;51.426;7.030;2023-05-25T06:57:23;101636.63;;;15.81;54.16
32081;BME280;18593;51.426;7.030;2023-05-25T06:59:50;101644.06;;;15.85;53.71
32081;BME280;18593;51.426;7.030;2023-05-25T07:02:17;101642.19;;;15.86;54.45
32081;BME280;18593;51.426;7.030;2023-05-25T07:04:45;101632.28;;;15.86;53.76
32081;BME280;18593;51.426;7.030;2023-05-25T07:07:14;101631.19;;;15.94;54.74
32081;BME280;18593;51.426;7.030;2023-05-25T07:09:42;101634.50;;;15.89;53.80
32081;BME280;18593;51.426;7.030;2023-05-25T07:12:10;101638.69;;;15.85;53.97
32081;BME280;18593;51.426;7.030;2023-05-25T07:14:37;101638.03;;;15.90;54.28
32081;BME280;18593;51.426;7.030;2023-05-25T07:17:05;101635.72;;;15.93;53.47
32081;BME280;18593;51.426;7.030;2023-05-25T07:19:32;101643.59;;;15.95;53.91
32081;BME280;18593;51.426;7.030;2023-05-25T07:22:00;101642.97;;;15.93;53.48
32081;BME280;18593;51.426;7.030;2023-05-25T07:24:27;101640.28;;;15.93;53.32
32081;BME280;18593;51.426;7.030;2023-05-25T07:26:54;101646.59;;;16.05;54.35
32081;BME280;18593;51.426;7.030;2023-05-25T07:29:22;101648.63;;;16.16;53.87
32081;BME280;18593;51.426;7.030;2023-05-25T07:31:50;101646.69;;;16.23;52.91
32081;BME280;18593;51.426;7.030;2023-05-25T07:34:17;101641.53;;;16.22;52.57
32081;BME280;18593;51.426;7.030;2023-05-25T07:36:45;101650.03;;;16.19;53.28
32081;BME280;18593;51.426;7.030;2023-05-25T07:39:12;101649.44;;;16.17;52.91
32081;BME280;18593;51.426;7.030;2023-05-25T07:41:39;101649.66;;;16.15;52.63
32081;BME280;18593;51.426;7.030;2023-05-25T07:44:06;101656.88;;;16.15;52.98
32081;BME280;18593;51.426;7.030;2023-05-25T07:46:35;101651.34;;;16.10;52.58
32081;BME280;18593;51.426;7.030;2023-05-25T07:49:02;101656.78;;;16.03;53.71
32081;BME280;18593;51.426;7.030;2023-05-25T07:51:31;101657.66;;;15.97;52.82
32081;BME280;18593;51.426;7.030;2023-05-25T07:53:58;101661.88;;;15.86;52.16
32081;BME280;18593;51.426;7.030;2023-05-25T07:56:26;101662.53;;;15.75;52.55
32081;BME280;18593;51.426;7.030;2023-05-25T07:58:53;101666.91;;;15.69;52.82
32081;BME280;18593;51.426;7.030;2023-05-25T08:01:21;101669.84;;;15.68;53.04
32081;BME280;18593;51.426;7.030;2023-05-25T08:03:50;101673.16;;;15.63;52.91
32081;BME280;18593;51.426;7.030;2023-05-25T08:06:17;101669.00;;;15.61;52.88
32081;BME280;18593;51.426;7.030;2023-05-25T08:08:45;101669.44;;;15.58;52.69
32081;BME280;18593;51.426;7.030;2023-05-25T08:11:14;101668.00;;;15.55;52.66
32081;BME280;18593;51.426;7.030;2023-05-25T08:13:41;101672.34;;;15.56;53.38
32081;BME280;18593;51.426;7.030;2023-05-25T08:16:08;101665.31;;;15.55;53.52
32081;BME280;18593;51.426;7.030;2023-05-25T08:18:36;101673.59;;;15.54;53.15
32081;BME280;18593;51.426;7.030;2023-05-25T08:21:04;101664.91;;;15.52;53.12
32081;BME280;18593;51.426;7.030;2023-05-25T08:23:32;101668.88;;;15.49;53.53
32081;BME280;18593;51.426;7.030;2023-05-25T08:25:59;101668.03;;;15.49;53.35
32081;BME280;18593;51.426;7.030;2023-05-25T08:28:26;101668.03;;;15.49;53.20
32081;BME280;18593;51.426;7.030;2023-05-25T08:30:53;101668.03;;;15.49;53.72
32081;BME280;18593;51.426;7.030;2023-05-25T08:33:22;101672.38;;;15.50;53.93
32081;BME280;18593;51.426;7.030;2023-05-25T08:35:50;101672.59;;;15.48;53.29
32081;BME280;18593;51.426;7.030;2023-05-25T08:38:19;101668.63;;;15.51;53.81
32081;BME280;18593;51.426;7.030;2023-05-25T08:41:03;101678.34;;;15.52;53.44
32081;BME280;18593;51.426;7.030;2023-05-25T08:43:32;101675.66;;;15.52;53.26
32081;BME280;18593;51.426;7.030;2023-05-25T08:46:03;101685.41;;;15.53;53.57
32081;BME280;18593;51.426;7.030;2023-05-25T08:48:33;101682.25;;;15.56;54.81
32081;BME280;18593;51.426;7.030;2023-05-25T08:51:05;101685.59;;;15.58;54.34
32081;BME280;18593;51.426;7.030;2023-05-25T08:53:36;101694.69;;;15.57;53.32
32081;BME280;18593;51.426;7.030;2023-05-25T08:56:09;101686.41;;;15.52;52.70
32081;BME280;18593;51.426;7.030;2023-05-25T08:58:41;101689.38;;;15.43;52.41
32081;BME280;18593;51.426;7.030;2023-05-25T09:01:15;101689.78;;;15.40;52.36
32081;BME280;18593;51.426;7.030;2023-05-25T09:03:45;101687.72;;;15.36;52.40
32081;BME280;18593;51.426;7.030;2023-05-25T09:06:13;101686.91;;;15.35;53.01
32081;BME280;18593;51.426;7.030;2023-05-25T09:08:43;101681.94;;;15.32;53.29
32081;BME280;18593;51.426;7.030;2023-05-25T09:11:11;101692.28;;;15.35;54.16
32081;BME280;18593;51.426;7.030;2023-05-25T09:13:40;101688.78;;;15.35;53.63
32081;BME280;18593;51.426;7.030;2023-05-25T09:16:08;101686.91;;;15.35;53.74
32081;BME280;18593;51.426;7.030;2023-05-25T09:18:35;101699.31;;;15.36;54.04
32081;BME280;18593;51.426;7.030;2023-05-25T09:21:03;101695.38;;;15.39;53.34
32081;BME280;18593;51.426;7.030;2023-05-25T09:23:31;101697.25;;;15.38;53.17
32081;BME280;18593;51.426;7.030;2023-05-25T09:26:00;101696.44;;;15.31;52.77
32081;BME280;18593;51.426;7.030;2023-05-25T09:28:28;101700.16;;;15.30;53.11
32081;BME280;18593;51.426;7.030;2023-05-25T09:30:55;101711.75;;;15.31;52.89
32081;BME280;18593;51.426;7.030;2023-05-25T09:33:23;101711.31;;;15.27;52.38
32081;BME280;18593;51.426;7.030;2023-05-25T09:35:50;101710.94;;;15.24;52.80
32081;BME280;18593;51.426;7.030;2023-05-25T09:38:18;101713.00;;;15.28;53.69
32081;BME280;18593;51.426;7.030;2023-05-25T09:40:45;101704.94;;;15.28;53.04
32081;BME280;18593;51.426;7.030;2023-05-25T09:43:14;101708.63;;;15.27;53.42
32081;BME280;18593;51.426;7.030;2023-05-25T09:45:42;101711.75;;;15.31;54.17
32081;BME280;18593;51.426;7.030;2023-05-25T09:48:10;101715.66;;;15.35;54.71
32081;BME280;18593;51.426;7.030;2023-05-25T09:50:37;101719.81;;;15.37;54.85
32081;BME280;18593;51.426;7.030;2023-05-25T09:53:06;101717.13;;;15.37;53.34
32081;BME280;18593;51.426;7.030;2023-05-25T09:55:36;101714.19;;;15.39;54.15
32081;BME280;18593;51.426;7.030;2023-05-25T09:58:04;101722.03;;;15.40;53.66
32081;BME280;18593;51.426;7.030;2023-05-25T10:00:33;101733.63;;;15.41;53.43
32081;BME280;18593;51.426;7.030;2023-05-25T10:03:00;101734.25;;;15.43;53.48
32081;BME280;18593;51.426;7.030;2023-05-25T10:05:27;101734.84;;;15.45;53.67
32081;BME280;18593;51.426;7.030;2023-05-25T10:07:55;101733.00;;;15.45;53.84
32081;BME280;18593;51.426;7.030;2023-05-25T10:10:23;101730.94;;;15.48;53.58
32081;BME280;18593;51.426;7.030;2023-05-25T10:12:52;101741.69;;;15.48;53.97
32081;BME280;18593;51.426;7.030;2023-05-25T10:15:21;101736.50;;;15.46;53.21
32081;BME280;18593;51.426;7.030;2023-05-25T10:17:53;101748.53;;;15.43;52.56
32081;BME280;18593;51.426;7.030;2023-05-25T10:20:21;101746.69;;;15.37;53.30
32081;BME280;18593;51.426;7.030;2023-05-25T10:22:54;101749.38;;;15.37;53.13
32081;BME280;18593;51.426;7.030;2023-05-25T10:25:26;101734.91;;;15.25;53.04
32081;BME280;18593;51.426;7.030;2023-05-25T10:27:58;101736.38;;;15.21;53.25
32081;BME280;18593;51.426;7.030;2023-05-25T10:30:26;101745.25;;;15.22;53.38
32081;BME280;18593;51.426;7.030;2023-05-25T10:32:55;101742.56;;;15.22;53.58
32081;BME280;18593;51.426;7.030;2023-05-25T10:35:23;101742.56;;;15.22;53.58
32081;BME280;18593;51.426;7.030;2023-05-25T10:37:52;101739.28;;;15.19;53.22
32081;BME280;18593;51.426;7.030;2023-05-25T10:40:20;101750.63;;;15.22;53.74
32081;BME280;18593;51.426;7.030;2023-05-25T10:42:49;101745.88;;;15.24;53.80
32081;BME280;18593;51.426;7.030;2023-05-25T10:45:17;101742.97;;;15.25;53.30
32081;BME280;18593;51.426;7.030;2023-05-25T10:47:45;101744.03;;;15.24;53.18
32081;BME280;18593;51.426;7.030;2023-05-25T10:50:21;101743.38;;;15.22;53.07
32081;BME280;18593;51.426;7.030;2023-05-25T10:53:00;101748.97;;;15.20;53.50
32081;BME280;18593;51.426;7.030;2023-05-25T10:55:28;101732.44;;;15.24;53.78
32081;BME280;18593;51.426;7.030;2023-05-25T10:58:07;101736.97;;;15.30;54.17
32081;BME280;18593;51.426;7.030;2023-05-25T11:00:35;101734.69;;;15.33;54.08
32081;BME280;18593;51.426;7.030;2023-05-25T11:03:03;101736.94;;;15.36;53.58
32081;BME280;18593;51.426;7.030;2023-05-25T11:05:35;101741.09;;;15.39;54.12
32081;BME280;18593;51.426;7.030;2023-05-25T11:08:05;101736.13;;;15.42;53.64
32081;BME280;18593;51.426;7.030;2023-05-25T11:10:59;101741.69;;;15.41;53.39
32081;BME280;18593;51.426;7.030;2023-05-25T11:13:35;101732.78;;;15.40;53.57
32081;BME280;18593;51.426;7.030;2023-05-25T11:16:20;101738.59;;;15.44;54.01
32081;BME280;18593;51.426;7.030;2023-05-25T11:18:54;101735.69;;;15.45;53.45
32081;BME280;18593;51.426;7.030;2023-05-25T11:21:42;101729.25;;;15.46;53.67
32081;BME280;18593;51.426;7.030;2023-05-25T11:24:16;101731.53;;;15.50;53.30
32081;BME280;18593;51.426;7.030;2023-05-25T11:26:56;101721.59;;;15.50;53.88
32081;BME280;18593;51.426;7.030;2023-05-25T11:29:24;101722.00;;;15.54;53.01
32081;BME280;18593;51.426;7.030;2023-05-25T11:31:53;101713.72;;;15.55;53.01
32081;BME280;18593;51.426;7.030;2023-05-25T11:34:22;101718.44;;;15.60;53.21
32081;BME280;18593;51.426;7.030;2023-05-25T11:36:56;101713.28;;;15.65;53.30
32081;BME280;18593;51.426;7.030;2023-05-25T11:39:26;101709.13;;;15.69;52.88
32081;BME280;18593;51.426;7.030;2023-05-25T11:41:56;101711.81;;;15.69;52.80
32081;BME280;18593;51.426;7.030;2023-05-25T11:44:28;101700.47;;;15.67;52.49
32081;BME280;18593;51.426;7.030;2023-05-25T11:46:59;101705.84;;;15.67;52.97
32081;BME280;18593;51.426;7.030;2023-05-25T11:49:26;101699.44;;;15.68;52.61
32081;BME280;18593;51.426;7.030;2023-05-25T11:51:56;101699.19;;;15.69;52.88
32081;BME280;18593;51.426;7.030;2023-05-25T11:54:26;101703.34;;;15.72;53.20
32081;BME280;18593;51.426;7.030;2023-05-25T11:56:55;101692.78;;;15.70;52.43
32081;BME280;18593;51.426;7.030;2023-05-25T11:59:24;101687.63;;;15.69;52.41
32081;BME280;18593;51.426;7.030;2023-05-25T12:02:02;101691.75;;;15.72;52.68
32081;BME280;18593;51.426;7.030;2023-05-25T12:04:31;101691.75;;;15.72;52.19
32081;BME280;18593;51.426;7.030;2023-05-25T12:07:05;101697.50;;;15.75;52.91
32081;BME280;18593;51.426;7.030;2023-05-25T12:09:33;101686.34;;;15.78;53.37
32081;BME280;18593;51.426;7.030;2023-05-25T12:12:03;101685.69;;;15.83;52.69
32081;BME280;18593;51.426;7.030;2023-05-25T12:14:31;101695.41;;;15.84;51.70
32081;BME280;18593;51.426;7.030;2023-05-25T12:17:01;101689.19;;;15.83;52.21
32081;BME280;18593;51.426;7.030;2023-05-25T12:19:28;101698.91;;;15.84;51.75
32081;BME280;18593;51.426;7.030;2023-05-25T12:21:55;101685.22;;;15.86;51.69
32081;BME280;18593;51.426;7.030;2023-05-25T12:24:24;101685.88;;;15.88;51.97
32081;BME280;18593;51.426;7.030;2023-05-25T12:26:53;101677.56;;;15.89;51.74
32081;BME280;18593;51.426;7.030;2023-05-25T12:29:22;101675.50;;;15.91;52.01
32081;BME280;18593;51.426;7.030;2023-05-25T12:31:50;101679.38;;;15.95;52.10
32081;BME280;18593;51.426;7.030;2023-05-25T12:34:18;101678.38;;;15.96;51.06
32081;BME280;18593;51.426;7.030;2023-05-25T12:36:47;101682.69;;;15.98;51.47
32081;BME280;18593;51.426;7.030;2023-05-25T12:39:17;101678.38;;;15.96;51.18
32081;BME280;18593;51.426;7.030;2023-05-25T12:41:48;101682.69;;;15.98;51.56
32081;BME280;18593;51.426;7.030;2023-05-25T12:44:25;101671.94;;;15.98;51.07
32081;BME280;18593;51.426;7.030;2023-05-25T12:46:54;101674.19;;;16.01;50.75
32081;BME280;18593;51.426;7.030;2023-05-25T12:49:32;101681.22;;;16.02;50.49
32081;BME280;18593;51.426;7.030;2023-05-25T12:52:02;101668.75;;;16.07;50.70
32081;BME280;18593;51.426;7.030;2023-05-25T12:54:34;101672.03;;;16.16;50.46
32081;BME280;18593;51.426;7.030;2023-05-25T12:57:04;101659.53;;;16.21;51.47
32081;BME280;18593;51.426;7.030;2023-05-25T12:59:35;101670.72;;;16.25;50.97
32081;BME280;18593;51.426;7.030;2023-05-25T13:02:04;101672.13;;;16.28;50.78
32081;BME280;18593;51.426;7.030;2023-05-25T13:04:33;101664.47;;;16.25;50.75